T'ai-nan, Taiwan
Current Conditions -  °F | °C
As of 9:00 PM on Thursday 27 Nov 2014 (Local Time) from RCKH Reporting Station
Scattered Clouds Scattered Clouds  
Wind Chill: 79°   Ceiling: Unl
Heat Index: 82°   Visibility: 4mi
Dew Point: 72°   Wind: 1mph
Humidity: 78%   Direction: NA
Pressure: 29.97"   Gusts: NA
Location:  22.95°N, 120.2°E
Report Text: RCKH 271300Z VRB01KT 6000 FEW015 SCT130 26/22 Q1015 NOSIGRMK A2998
Loading
Personal Weather Stations






























Interactive Weather Map New forecast layout! Learn more

10-Day Weather Forecast

Advertisements
Track Severe Weather on mobile